createdAt,value
2016-11-11T00:00:27.972Z,12
2016-11-11T00:01:38.288Z,12
2016-11-11T00:02:48.612Z,12
2016-11-11T00:03:59.057Z,12
2016-11-11T00:05:23.947Z,12
2016-11-11T00:06:34.267Z,12
2016-11-11T00:07:59.158Z,12
2016-11-11T00:09:09.479Z,12
2016-11-11T00:10:19.832Z,12
2016-11-11T00:11:30.227Z,12
2016-11-11T00:12:40.646Z,12
2016-11-11T00:13:51.061Z,12
2016-11-11T00:15:01.476Z,12
2016-11-11T00:16:11.915Z,12
2016-11-11T00:17:22.820Z,8
2016-11-11T00:18:33.262Z,12
2016-11-11T00:19:43.674Z,12
2016-11-11T00:20:54.189Z,12
2016-11-11T00:22:04.598Z,12
2016-11-11T00:23:15.017Z,8
2016-11-11T00:24:39.986Z,12
2016-11-11T00:25:50.499Z,8
2016-11-11T00:27:00.916Z,12
2016-11-11T00:28:11.331Z,12
2016-11-11T00:29:21.745Z,12
2016-11-11T00:30:32.185Z,12
2016-11-11T00:31:42.776Z,12
2016-11-11T00:32:53.310Z,12
2016-11-11T00:34:03.837Z,12
2016-11-11T00:35:14.376Z,12
2016-11-11T00:36:24.907Z,12
2016-11-11T00:37:35.435Z,12
2016-11-11T00:38:45.971Z,12
2016-11-11T00:39:56.502Z,12
2016-11-11T00:41:07.043Z,12
2016-11-11T00:42:17.574Z,12
2016-11-11T00:43:28.213Z,12
2016-11-11T00:44:38.744Z,12
2016-11-11T00:45:49.273Z,12
2016-11-11T00:46:59.805Z,12
2016-11-11T00:48:10.338Z,12
2016-11-11T00:49:20.967Z,12
2016-11-11T00:50:31.497Z,12
2016-11-11T00:51:42.533Z,12
2016-11-11T00:52:53.061Z,12
2016-11-11T00:54:03.593Z,12
2016-11-11T00:55:14.121Z,12
2016-11-11T00:56:24.580Z,12
2016-11-11T00:57:35.020Z,8
2016-11-11T00:58:45.484Z,12
2016-11-11T00:59:55.920Z,12
2016-11-11T01:01:20.912Z,12
2016-11-11T01:02:31.350Z,8
2016-11-11T01:03:41.783Z,12
2016-11-11T01:04:52.221Z,12
2016-11-11T01:06:02.661Z,12
2016-11-11T01:07:13.207Z,8
2016-11-11T01:08:23.647Z,8
2016-11-11T01:09:34.087Z,4
2016-11-11T01:10:44.524Z,12
2016-11-11T01:11:54.964Z,12
2016-11-11T01:13:05.400Z,12
2016-11-11T01:14:15.844Z,12
2016-11-11T01:15:26.280Z,12
2016-11-11T01:16:36.719Z,12
2016-11-11T01:17:47.155Z,12
2016-11-11T01:18:57.698Z,12
2016-11-11T01:21:33.144Z,12
2016-11-11T01:22:43.590Z,12
2016-11-11T01:23:54.071Z,12
2016-11-11T01:25:04.521Z,12
2016-11-11T01:26:14.963Z,12
2016-11-11T01:27:25.403Z,12
2016-11-11T01:28:35.842Z,8
2016-11-11T01:29:46.380Z,12
2016-11-11T01:30:56.819Z,8
2016-11-11T01:32:07.261Z,12
2016-11-11T01:33:17.699Z,8
2016-11-11T01:35:53.615Z,12
2016-11-11T01:37:18.595Z,12
2016-11-11T01:38:28.950Z,12
2016-11-11T01:39:39.274Z,8
2016-11-11T01:40:49.597Z,12
2016-11-11T01:41:59.916Z,12
2016-11-11T01:43:10.240Z,12
2016-11-11T01:44:20.562Z,12
2016-11-11T01:45:30.884Z,12
2016-11-11T01:46:41.213Z,12
2016-11-11T01:47:51.536Z,12
2016-11-11T01:49:01.855Z,12
2016-11-11T01:50:12.210Z,12
2016-11-11T01:51:22.532Z,12
2016-11-11T01:52:32.949Z,12
2016-11-11T01:53:43.297Z,12
2016-11-11T01:55:08.675Z,12
2016-11-11T01:56:33.560Z,12
2016-11-11T01:57:43.879Z,12
2016-11-11T01:58:54.207Z,12
2016-11-11T02:00:04.529Z,12
2016-11-11T02:01:43.983Z,4
2016-11-11T02:02:54.305Z,12
2016-11-11T02:04:19.191Z,12
2016-11-11T02:05:29.514Z,12
2016-11-11T02:06:39.835Z,12
2016-11-11T02:07:50.187Z,12
2016-11-11T02:09:00.540Z,12
2016-11-11T02:10:10.860Z,12
2016-11-11T02:11:21.184Z,12
2016-11-11T02:12:31.587Z,12
2016-11-11T02:13:42.125Z,12
2016-11-11T02:14:52.572Z,12
2016-11-11T02:16:03.012Z,12
2016-11-11T02:17:13.460Z,12
2016-11-11T02:18:38.542Z,12
2016-11-11T02:19:48.975Z,12
2016-11-11T02:20:59.416Z,12
2016-11-11T02:22:24.400Z,12
2016-11-11T02:23:34.836Z,12
2016-11-11T02:24:46.503Z,12
2016-11-11T02:25:56.941Z,12
2016-11-11T02:27:07.386Z,12
2016-11-11T02:28:17.820Z,8
2016-11-11T02:29:28.258Z,12
2016-11-11T02:30:38.703Z,12
2016-11-11T02:31:49.149Z,12
2016-11-11T02:32:59.589Z,12
2016-11-11T02:34:10.040Z,12
2016-11-11T02:35:20.477Z,12
2016-11-11T02:36:30.912Z,12
2016-11-11T02:37:55.896Z,12
2016-11-11T02:39:06.339Z,12
2016-11-11T02:40:16.977Z,12
2016-11-11T02:41:27.414Z,12
2016-11-11T02:44:02.843Z,12
2016-11-11T02:45:13.780Z,12
2016-11-11T02:46:24.321Z,12
2016-11-11T02:47:34.759Z,12
2016-11-11T02:48:45.195Z,12
2016-11-11T02:49:55.669Z,12
2016-11-11T02:51:06.112Z,12
2016-11-11T02:52:16.548Z,8
2016-11-11T02:53:26.984Z,12
2016-11-11T02:54:37.429Z,12
2016-11-11T02:56:02.550Z,12
2016-11-11T02:57:13.014Z,12
2016-11-11T02:58:23.480Z,12
2016-11-11T02:59:33.917Z,12
2016-11-11T03:00:44.363Z,12
2016-11-11T03:01:54.817Z,12
2016-11-11T03:03:05.256Z,12
2016-11-11T03:04:15.696Z,12
2016-11-11T03:05:26.136Z,12
2016-11-11T03:06:36.608Z,12
2016-11-11T03:07:47.054Z,12
2016-11-11T03:08:57.493Z,12
2016-11-11T03:10:07.933Z,12
2016-11-11T03:11:18.370Z,8
2016-11-11T03:12:28.806Z,12
2016-11-11T03:13:39.441Z,12
2016-11-11T03:14:49.878Z,12
2016-11-11T03:16:00.318Z,12
2016-11-11T03:17:10.758Z,12
2016-11-11T03:18:35.838Z,12
2016-11-11T03:19:46.197Z,12
2016-11-11T03:20:56.513Z,12
2016-11-11T03:22:06.838Z,12
2016-11-11T03:23:17.193Z,12
2016-11-11T03:25:52.599Z,12
2016-11-11T03:27:02.926Z,12
2016-11-11T03:28:13.246Z,12
2016-11-11T03:29:38.336Z,12
2016-11-11T03:30:48.659Z,4
2016-11-11T03:32:13.562Z,12
2016-11-11T03:33:23.907Z,12
2016-11-11T03:34:34.244Z,12
2016-11-11T03:35:44.785Z,12
2016-11-11T03:36:55.164Z,12
2016-11-11T03:38:05.506Z,8
2016-11-11T03:39:15.847Z,8
2016-11-11T03:40:26.223Z,8
2016-11-11T03:41:36.568Z,12
2016-11-11T03:42:46.906Z,12
2016-11-11T03:43:57.252Z,12
2016-11-11T03:45:07.616Z,12
2016-11-11T03:46:18.052Z,12
2016-11-11T03:47:28.387Z,12
2016-11-11T03:48:38.723Z,12
2016-11-11T03:49:49.066Z,12
2016-11-11T03:50:59.405Z,12
2016-11-11T03:52:09.743Z,12
2016-11-11T03:53:20.085Z,12
2016-11-11T03:54:30.446Z,12
2016-11-11T03:55:40.785Z,12
2016-11-11T03:56:51.129Z,12
2016-11-11T03:58:01.664Z,12
2016-11-11T03:59:12.042Z,12
2016-11-11T04:00:22.376Z,12
2016-11-11T04:01:32.714Z,12
2016-11-11T04:02:43.050Z,12
2016-11-11T04:05:18.396Z,12
2016-11-11T04:06:28.739Z,12
2016-11-11T04:07:39.114Z,12
2016-11-11T04:08:49.555Z,12
2016-11-11T04:09:59.894Z,12
2016-11-11T04:11:10.233Z,12
2016-11-11T04:12:20.569Z,12
2016-11-11T04:13:30.909Z,12
2016-11-11T04:14:41.246Z,12
2016-11-11T04:15:51.586Z,12
2016-11-11T04:17:01.961Z,12
2016-11-11T04:18:12.291Z,12
2016-11-11T04:19:22.617Z,12
2016-11-11T04:20:33.137Z,12
2016-11-11T04:21:43.462Z,12
2016-11-11T04:22:53.818Z,12
2016-11-11T04:25:29.067Z,12
2016-11-11T04:26:39.394Z,12
2016-11-11T04:27:49.716Z,12
2016-11-11T04:29:00.037Z,12
2016-11-11T04:34:56.775Z,12
2016-11-11T04:36:07.099Z,12
2016-11-11T04:37:17.428Z,12
2016-11-11T04:38:27.747Z,12
2016-11-11T04:39:38.079Z,12
2016-11-11T04:40:48.400Z,12
2016-11-11T04:41:58.716Z,12
2016-11-11T04:43:09.039Z,12
2016-11-11T04:44:19.361Z,12
2016-11-11T04:45:29.683Z,12
2016-11-11T04:46:40.003Z,12
2016-11-11T04:47:50.322Z,12
2016-11-11T04:49:00.646Z,12
2016-11-11T04:50:10.967Z,12
2016-11-11T04:51:21.291Z,12
2016-11-11T04:52:31.811Z,12
2016-11-11T04:53:42.130Z,12
2016-11-11T04:54:52.450Z,12
2016-11-11T04:56:02.776Z,12
2016-11-11T04:57:13.106Z,12
2016-11-11T04:58:23.428Z,12
2016-11-11T04:59:33.745Z,12
2016-11-11T05:00:44.147Z,12
2016-11-11T05:01:54.586Z,12
2016-11-11T05:03:05.043Z,12
2016-11-11T05:04:15.600Z,12
2016-11-11T05:05:26.055Z,12
2016-11-11T05:06:36.511Z,12
2016-11-11T05:07:46.989Z,12
2016-11-11T05:08:57.485Z,12
2016-11-11T05:10:07.940Z,12
2016-11-11T05:11:18.393Z,12
2016-11-11T05:12:28.850Z,12
2016-11-11T05:13:39.299Z,12
2016-11-11T05:14:49.753Z,12
2016-11-11T05:16:00.211Z,12
2016-11-11T05:17:10.664Z,12
2016-11-11T05:18:21.126Z,12
2016-11-11T05:19:31.576Z,12
2016-11-11T05:20:42.028Z,12
2016-11-11T05:21:52.579Z,12
2016-11-11T05:23:03.525Z,12
2016-11-11T05:24:13.973Z,12
2016-11-11T05:25:24.426Z,12
2016-11-11T05:26:34.882Z,12
2016-11-11T05:27:45.437Z,12
2016-11-11T05:28:55.890Z,12
2016-11-11T05:30:06.348Z,12
2016-11-11T05:31:16.796Z,12
2016-11-11T05:32:27.246Z,12
2016-11-11T05:33:38.407Z,12
2016-11-11T05:34:48.773Z,12
2016-11-11T05:35:59.168Z,12
2016-11-11T05:37:09.613Z,12
2016-11-11T05:38:20.027Z,12
2016-11-11T05:39:30.436Z,12
2016-11-11T05:40:40.853Z,8
2016-11-11T05:42:05.812Z,12
2016-11-11T05:43:16.221Z,8
2016-11-11T05:44:26.731Z,12
2016-11-11T05:45:37.141Z,12
2016-11-11T05:46:47.557Z,12
2016-11-11T05:48:12.523Z,12
2016-11-11T05:49:22.932Z,12
2016-11-11T05:50:33.355Z,12
2016-11-11T05:51:43.768Z,12
2016-11-11T05:52:54.213Z,12
2016-11-11T05:54:04.632Z,12
2016-11-11T05:55:15.240Z,12
2016-11-11T05:56:25.652Z,12
2016-11-11T05:57:36.069Z,12
2016-11-11T05:58:46.476Z,12
2016-11-11T05:59:57.882Z,12
2016-11-11T06:01:08.392Z,8
2016-11-11T06:02:18.807Z,12
2016-11-11T06:03:29.215Z,8
2016-11-11T06:04:39.624Z,8
2016-11-11T06:05:50.037Z,12
2016-11-11T06:07:00.651Z,12
2016-11-11T06:08:11.152Z,12
2016-11-11T06:09:21.687Z,12
2016-11-11T06:10:32.220Z,12
2016-11-11T06:11:42.749Z,12
2016-11-11T06:12:53.485Z,12
2016-11-11T06:14:04.018Z,12
2016-11-11T06:15:14.544Z,12
2016-11-11T06:16:25.074Z,12
2016-11-11T06:17:35.605Z,12
2016-11-11T06:18:46.243Z,12
2016-11-11T06:19:56.772Z,12
2016-11-11T06:21:07.307Z,12
2016-11-11T06:22:17.842Z,12
2016-11-11T06:23:28.374Z,12
2016-11-11T06:24:39.007Z,12
2016-11-11T06:25:49.543Z,12
2016-11-11T06:27:00.105Z,12
2016-11-11T06:28:11.136Z,12
2016-11-11T06:29:21.665Z,12
2016-11-11T06:30:32.196Z,12
2016-11-11T06:31:42.724Z,12
2016-11-11T06:32:53.252Z,12
2016-11-11T06:34:03.786Z,12
2016-11-11T06:35:14.323Z,12
2016-11-11T06:36:24.955Z,12
2016-11-11T06:37:35.483Z,12
2016-11-11T06:39:00.544Z,12
2016-11-11T06:40:11.078Z,12
2016-11-11T06:41:21.678Z,12
2016-11-11T06:42:32.089Z,12
2016-11-11T06:43:42.425Z,12
2016-11-11T06:44:52.755Z,12
2016-11-11T06:46:17.641Z,12
2016-11-11T06:47:27.958Z,12
2016-11-11T06:48:38.284Z,12
2016-11-11T06:49:48.602Z,12
2016-11-11T06:50:58.923Z,12
2016-11-11T06:52:09.345Z,12
2016-11-11T06:53:19.662Z,12
2016-11-11T06:54:29.992Z,12
2016-11-11T06:55:40.312Z,12
2016-11-11T06:57:05.503Z,12
2016-11-11T06:58:30.390Z,12
2016-11-11T06:59:40.709Z,12
2016-11-11T07:00:51.514Z,12
2016-11-11T07:02:16.508Z,12
2016-11-11T07:03:26.831Z,12
2016-11-11T07:04:37.155Z,12
2016-11-11T07:05:47.504Z,12
2016-11-11T07:06:57.823Z,12
2016-11-11T07:08:09.197Z,12
2016-11-11T07:09:19.520Z,8
2016-11-11T07:10:29.841Z,8
2016-11-11T07:11:40.173Z,12
2016-11-11T07:12:50.496Z,12
2016-11-11T07:14:00.918Z,12
2016-11-11T07:15:11.720Z,12
2016-11-11T07:16:22.039Z,12
2016-11-11T07:17:32.358Z,12
2016-11-11T07:18:42.678Z,12
2016-11-11T07:19:53.203Z,12
2016-11-11T07:21:18.088Z,12
2016-11-11T07:22:28.410Z,12
2016-11-11T07:23:38.728Z,12
2016-11-11T07:24:49.389Z,12
2016-11-11T07:25:59.711Z,12
2016-11-11T07:27:10.042Z,12
2016-11-11T07:28:20.441Z,12
2016-11-11T07:29:45.406Z,12
2016-11-11T07:30:56.064Z,12
2016-11-11T07:32:06.478Z,12
2016-11-11T07:33:16.915Z,12
2016-11-11T07:34:27.325Z,12
2016-11-11T07:35:37.742Z,12
2016-11-11T07:36:48.156Z,12
2016-11-11T07:37:58.590Z,12
2016-11-11T07:40:33.965Z,12
2016-11-11T07:41:44.374Z,12
2016-11-11T07:42:54.824Z,12
2016-11-11T07:44:05.238Z,12
2016-11-11T07:45:15.655Z,8
2016-11-11T07:46:26.268Z,12
2016-11-11T07:47:36.683Z,12
2016-11-11T07:48:47.098Z,12
2016-11-11T07:49:57.510Z,8
2016-11-11T07:51:07.930Z,12
2016-11-11T07:52:18.439Z,12
2016-11-11T07:53:28.852Z,12
2016-11-11T07:54:39.266Z,12
2016-11-11T07:55:49.685Z,12
2016-11-11T07:57:00.100Z,12
2016-11-11T07:58:10.520Z,12
2016-11-11T07:59:21.415Z,12
2016-11-11T08:00:31.835Z,12
2016-11-11T08:01:42.249Z,16
2016-11-11T08:02:52.665Z,12
2016-11-11T08:04:03.275Z,16
2016-11-11T08:05:13.686Z,16
2016-11-11T08:06:24.103Z,16
2016-11-11T08:07:34.515Z,16
2016-11-11T08:08:44.924Z,16
2016-11-11T08:09:55.530Z,20
2016-11-11T08:11:06.801Z,20
2016-11-11T08:12:17.212Z,12
2016-11-11T08:13:27.547Z,12
2016-11-11T08:14:37.865Z,16
2016-11-11T08:15:48.189Z,16
2016-11-11T08:16:58.558Z,20
2016-11-11T08:18:09.390Z,20
2016-11-11T08:19:19.714Z,24
2016-11-11T08:20:30.757Z,28
2016-11-11T08:21:41.430Z,32
2016-11-11T08:22:51.838Z,36
2016-11-11T08:24:03.035Z,40
2016-11-11T08:26:38.557Z,52
2016-11-11T08:27:48.993Z,56
2016-11-11T08:28:59.434Z,60
2016-11-11T08:30:09.903Z,68
2016-11-11T08:31:20.339Z,72
2016-11-11T08:32:30.981Z,76
2016-11-11T08:33:41.415Z,84
2016-11-11T08:34:51.857Z,84
2016-11-11T08:36:02.295Z,92
2016-11-11T08:37:12.735Z,100
2016-11-11T08:38:23.282Z,108
2016-11-11T08:39:33.727Z,116
2016-11-11T08:40:44.198Z,132
2016-11-11T08:41:54.637Z,144
2016-11-11T08:43:05.075Z,160
2016-11-11T08:44:15.616Z,160
2016-11-11T08:45:41.210Z,164
2016-11-11T08:46:51.646Z,152
2016-11-11T08:48:02.083Z,152
2016-11-11T08:49:13.214Z,152
2016-11-11T08:50:23.652Z,148
2016-11-11T08:51:34.096Z,140
2016-11-11T08:52:44.535Z,132
2016-11-11T08:54:09.522Z,132
2016-11-11T08:55:19.963Z,136
2016-11-11T08:56:30.404Z,136
2016-11-11T08:57:40.867Z,140
2016-11-11T08:58:51.309Z,136
2016-11-11T09:00:01.780Z,140
2016-11-11T09:01:12.219Z,144
2016-11-11T09:02:22.655Z,152
2016-11-11T09:03:33.086Z,164
2016-11-11T09:04:43.668Z,168
2016-11-11T09:05:54.393Z,184
2016-11-11T09:07:04.948Z,200
2016-11-11T09:08:15.457Z,220
2016-11-11T09:09:25.897Z,232
2016-11-11T09:10:51.377Z,248
2016-11-11T09:12:01.820Z,260
2016-11-11T09:13:12.267Z,272
2016-11-11T09:14:22.708Z,284
2016-11-11T09:15:33.923Z,296
2016-11-11T09:16:44.559Z,308
2016-11-11T09:18:09.538Z,280
2016-11-11T09:19:19.975Z,276
2016-11-11T09:20:30.407Z,300
2016-11-11T09:21:40.848Z,288
2016-11-11T09:22:51.319Z,312
2016-11-11T09:24:02.244Z,336
2016-11-11T09:25:12.691Z,368
2016-11-11T09:26:23.128Z,376
2016-11-11T09:27:33.661Z,432
2016-11-11T09:28:44.128Z,440
2016-11-11T09:29:54.975Z,452
2016-11-11T09:31:05.298Z,416
2016-11-11T09:32:15.629Z,488
2016-11-11T09:33:26.095Z,492
2016-11-11T09:34:36.894Z,532
2016-11-11T09:35:47.216Z,476
2016-11-11T09:36:57.541Z,436
2016-11-11T09:38:07.868Z,396
2016-11-11T09:39:18.319Z,364
2016-11-11T09:40:28.643Z,336
2016-11-11T09:41:38.977Z,348
2016-11-11T09:42:49.375Z,348
2016-11-11T09:43:59.792Z,392
2016-11-11T09:45:10.201Z,404
2016-11-11T09:46:20.661Z,456
2016-11-11T09:47:31.073Z,504
2016-11-11T09:50:06.447Z,508
2016-11-11T09:51:31.411Z,500
2016-11-11T09:52:41.818Z,476
2016-11-11T09:53:52.236Z,432
2016-11-11T09:55:02.649Z,404
2016-11-11T09:56:13.171Z,416
2016-11-11T09:57:23.589Z,436
2016-11-11T09:58:34.005Z,424
2016-11-11T09:59:44.418Z,400
2016-11-11T10:00:54.839Z,420
2016-11-11T10:02:19.802Z,424
2016-11-11T10:03:30.285Z,420
2016-11-11T10:04:40.816Z,420
2016-11-11T10:05:51.447Z,428
2016-11-11T10:07:02.009Z,416
2016-11-11T10:08:12.540Z,416
2016-11-11T10:09:23.071Z,416
2016-11-11T10:10:33.603Z,412
2016-11-11T10:11:44.173Z,416
2016-11-11T10:12:54.703Z,416
2016-11-11T10:14:05.238Z,416
2016-11-11T10:15:15.770Z,412
2016-11-11T10:16:26.307Z,416
2016-11-11T10:17:37.039Z,416
2016-11-11T10:20:27.154Z,412
2016-11-11T10:21:37.684Z,416
2016-11-11T10:22:48.319Z,420
2016-11-11T10:23:58.852Z,416
2016-11-11T10:25:09.385Z,416
2016-11-11T10:26:19.916Z,420
2016-11-11T10:27:30.455Z,420
2016-11-11T10:28:55.717Z,424
2016-11-11T10:30:06.249Z,428
2016-11-11T10:31:16.792Z,420
2016-11-11T10:32:41.849Z,428
2016-11-11T10:33:52.577Z,428
2016-11-11T10:35:03.124Z,428
2016-11-11T10:36:13.662Z,428
2016-11-11T10:37:24.199Z,436
2016-11-11T10:38:34.736Z,436
2016-11-11T10:39:45.477Z,432
2016-11-11T10:40:56.521Z,432
2016-11-11T10:42:07.092Z,440
2016-11-11T10:43:17.629Z,448
2016-11-11T10:44:28.166Z,440
2016-11-11T10:45:38.705Z,444
2016-11-11T10:46:49.238Z,452
2016-11-11T10:47:59.766Z,452
2016-11-11T10:49:10.298Z,460
2016-11-11T10:50:20.840Z,468
2016-11-11T10:51:31.475Z,468
2016-11-11T10:52:42.024Z,476
2016-11-11T10:53:53.050Z,492
2016-11-11T10:55:03.580Z,496
2016-11-11T10:56:14.115Z,504
2016-11-11T10:57:39.275Z,508
2016-11-11T10:58:49.812Z,516
2016-11-11T11:00:00.348Z,524
2016-11-11T11:01:10.883Z,508
2016-11-11T11:02:50.469Z,488
2016-11-11T11:04:01.002Z,492
2016-11-11T11:05:11.563Z,512
2016-11-11T11:06:22.095Z,536
2016-11-11T11:07:32.728Z,548
2016-11-11T11:08:43.280Z,552
2016-11-11T11:09:53.922Z,552
2016-11-11T11:11:04.339Z,552
2016-11-11T11:12:14.751Z,556
2016-11-11T11:13:25.177Z,556
2016-11-11T11:14:35.597Z,564
2016-11-11T11:15:46.012Z,556
2016-11-11T11:16:56.436Z,568
2016-11-11T11:18:06.850Z,572
2016-11-11T11:19:17.784Z,572
2016-11-11T11:20:28.206Z,580
2016-11-11T11:21:38.616Z,580
2016-11-11T11:22:49.036Z,592
2016-11-11T11:23:59.952Z,584
2016-11-11T11:25:10.570Z,592
2016-11-11T11:26:20.987Z,600
2016-11-11T11:27:31.398Z,604
2016-11-11T11:28:56.367Z,620
2016-11-11T11:30:06.979Z,620
2016-11-11T11:31:17.394Z,624
2016-11-11T11:32:27.809Z,632
2016-11-11T11:33:38.227Z,640
2016-11-11T11:34:48.641Z,644
2016-11-11T11:36:00.142Z,656
2016-11-11T11:37:10.564Z,668
2016-11-11T11:38:20.990Z,688
2016-11-11T11:39:31.400Z,692
2016-11-11T11:40:41.818Z,704
2016-11-11T11:41:52.268Z,724
2016-11-11T11:43:02.684Z,728
2016-11-11T11:44:13.104Z,732
2016-11-11T11:45:23.520Z,764
2016-11-11T11:46:34.525Z,760
2016-11-11T11:47:44.939Z,780
2016-11-11T11:48:55.350Z,800
2016-11-11T11:50:05.763Z,812
2016-11-11T11:51:16.174Z,840
2016-11-11T11:52:26.589Z,856
2016-11-11T11:53:37.100Z,860
2016-11-11T11:54:47.997Z,908
2016-11-11T11:55:58.412Z,920
2016-11-11T11:57:08.821Z,972
2016-11-11T11:58:19.166Z,1000
2016-11-11T12:01:08.962Z,1080
2016-11-11T12:02:19.285Z,1128
2016-11-11T12:03:44.184Z,1172
2016-11-11T12:04:54.712Z,1192
2016-11-11T12:06:05.036Z,1252
2016-11-11T12:07:15.360Z,1288
2016-11-11T12:08:25.699Z,1312
2016-11-11T12:09:36.020Z,1348
2016-11-11T12:10:46.341Z,1368
2016-11-11T12:11:56.667Z,1420
2016-11-11T12:13:06.989Z,1436
2016-11-11T12:14:17.314Z,1496
2016-11-11T12:15:27.637Z,1532
2016-11-11T12:16:38.158Z,1584
2016-11-11T12:18:03.056Z,1688
2016-11-11T12:19:13.381Z,1784
2016-11-11T12:20:23.705Z,1832
2016-11-11T12:21:34.127Z,1924
2016-11-11T12:22:44.493Z,1960
2016-11-11T12:23:54.821Z,2000
2016-11-11T12:25:05.151Z,1992
2016-11-11T12:26:15.477Z,2012
2016-11-11T12:27:40.572Z,2072
2016-11-11T12:28:50.898Z,2064
2016-11-11T12:30:01.258Z,2128
2016-11-11T12:31:26.156Z,2108
2016-11-11T12:32:51.052Z,1988
2016-11-11T12:34:01.388Z,2120
2016-11-11T12:35:11.721Z,2200
2016-11-11T12:36:22.047Z,2240
2016-11-11T12:37:32.372Z,2188
2016-11-11T12:38:42.697Z,2244
2016-11-11T12:39:53.024Z,2284
2016-11-11T12:41:03.356Z,2320
2016-11-11T12:42:28.287Z,2276
2016-11-11T12:43:38.701Z,2248
2016-11-11T12:44:49.116Z,2332
2016-11-11T12:45:59.542Z,2360
2016-11-11T12:47:09.957Z,2356
2016-11-11T12:48:20.376Z,2356
2016-11-11T12:49:30.801Z,2356
2016-11-11T12:50:41.216Z,2336
2016-11-11T12:51:51.636Z,2368
2016-11-11T12:53:02.059Z,2416
2016-11-11T12:54:27.026Z,2388
2016-11-11T12:55:37.446Z,2404
2016-11-11T12:56:48.345Z,2420
2016-11-11T12:57:58.762Z,2452
2016-11-11T12:59:09.179Z,2472
2016-11-11T13:00:19.696Z,2512
2016-11-11T13:01:30.107Z,2476
2016-11-11T13:02:40.523Z,2428
2016-11-11T13:03:50.943Z,2496
2016-11-11T13:05:01.357Z,2488
2016-11-11T13:06:11.978Z,2532
2016-11-11T13:07:22.396Z,2584
2016-11-11T13:10:12.369Z,2512
2016-11-11T13:11:22.791Z,2512
2016-11-11T13:13:58.182Z,2460
2016-11-11T13:15:08.601Z,1968
2016-11-11T13:16:19.022Z,2460
2016-11-11T13:17:29.472Z,2572
2016-11-11T13:18:39.907Z,2548
2016-11-11T13:19:50.322Z,2608
2016-11-11T13:21:00.741Z,2588
2016-11-11T13:23:36.132Z,2676
2016-11-11T13:24:46.555Z,2688
2016-11-11T13:25:57.065Z,2684
2016-11-11T13:27:07.807Z,1348
2016-11-11T13:28:18.350Z,2664
2016-11-11T13:29:28.889Z,2684
2016-11-11T13:30:53.954Z,2636
2016-11-11T13:32:04.496Z,2416
2016-11-11T13:33:15.531Z,2640
2016-11-11T13:34:26.070Z,2624
2016-11-11T13:35:36.610Z,2680
2016-11-11T13:36:47.147Z,2772
2016-11-11T13:37:57.686Z,2772
2016-11-11T13:39:22.763Z,2700
2016-11-11T13:40:33.461Z,2740
2016-11-11T13:41:44.014Z,1588
2016-11-11T13:43:09.081Z,2708
2016-11-11T13:44:19.618Z,2852
2016-11-11T13:45:30.156Z,904
2016-11-11T13:46:41.195Z,1860
2016-11-11T13:47:51.738Z,1000
2016-11-11T13:49:02.377Z,2864
2016-11-11T13:51:38.070Z,3000
2016-11-11T13:52:48.616Z,1148
2016-11-11T13:53:59.154Z,1168
2016-11-11T13:56:35.278Z,2776
2016-11-11T13:57:46.313Z,2924
2016-11-11T14:00:37.902Z,2092
2016-11-11T14:02:04.216Z,924
2016-11-11T14:03:16.270Z,916
2016-11-11T14:04:26.934Z,948
2016-11-11T14:05:37.976Z,964
2016-11-11T14:06:48.522Z,2784
2016-11-11T14:07:59.071Z,872
2016-11-11T14:09:24.134Z,744
2016-11-11T14:10:35.167Z,836
2016-11-11T14:11:45.714Z,1628
2016-11-11T14:13:10.774Z,1288
2016-11-11T14:14:21.349Z,3120
2016-11-11T14:15:32.336Z,3012
2016-11-11T14:16:43.462Z,2800
2016-11-11T14:17:53.998Z,2980
2016-11-11T14:19:04.534Z,3000
2016-11-11T14:20:15.564Z,2376
2016-11-11T14:21:26.105Z,3244
2016-11-11T14:22:36.651Z,1812
2016-11-11T14:25:12.454Z,932
2016-11-11T14:26:22.993Z,916
2016-11-11T14:27:33.527Z,884
2016-11-11T14:28:44.095Z,972
2016-11-11T14:29:54.630Z,952
2016-11-11T14:31:05.163Z,2992
2016-11-11T14:32:15.703Z,2944
2016-11-11T14:33:26.307Z,2740
2016-11-11T14:34:36.847Z,896
2016-11-11T14:35:47.709Z,664
2016-11-11T14:36:58.448Z,664
2016-11-11T14:38:08.986Z,648
2016-11-11T14:39:19.523Z,2844
2016-11-11T14:40:30.060Z,2876
2016-11-11T14:41:40.597Z,2480
2016-11-11T14:42:51.362Z,1308
2016-11-11T14:44:02.464Z,772
2016-11-11T14:46:38.087Z,788
2016-11-11T14:47:48.654Z,808
2016-11-11T14:48:59.263Z,856
2016-11-11T14:50:09.799Z,2880
2016-11-11T14:51:20.339Z,2804
2016-11-11T14:52:31.184Z,2788
2016-11-11T14:53:42.227Z,2612
2016-11-11T14:54:52.765Z,2544
2016-11-11T14:56:03.301Z,2560
2016-11-11T14:57:13.844Z,2556
2016-11-11T14:58:24.382Z,2584
2016-11-11T14:59:34.925Z,2536
2016-11-11T15:00:45.461Z,2536
2016-11-11T15:01:55.997Z,2500
2016-11-11T15:03:06.536Z,2344
2016-11-11T15:04:17.078Z,2512
2016-11-11T15:05:27.622Z,2472
2016-11-11T15:06:38.161Z,1852
2016-11-11T15:07:48.698Z,2516
2016-11-11T15:08:59.238Z,2560
2016-11-11T15:10:09.783Z,2408
2016-11-11T15:11:20.329Z,2400
2016-11-11T15:12:30.877Z,2404
2016-11-11T15:13:41.415Z,2352
2016-11-11T15:15:06.986Z,2364
2016-11-11T15:16:17.529Z,1632
2016-11-11T15:17:28.068Z,2264
2016-11-11T15:18:38.612Z,2292
2016-11-11T15:19:49.151Z,2224
2016-11-11T15:20:59.687Z,2296
2016-11-11T15:22:10.326Z,2268
2016-11-11T15:24:45.941Z,2152
2016-11-11T15:25:56.479Z,2040
2016-11-11T15:27:07.155Z,1088
2016-11-11T15:28:17.706Z,1592
2016-11-11T15:29:28.256Z,712
2016-11-11T15:30:38.803Z,624
2016-11-11T15:31:49.339Z,624
2016-11-11T15:32:59.976Z,1856
2016-11-11T15:34:10.516Z,1864
2016-11-11T15:35:21.055Z,700
2016-11-11T15:36:31.591Z,1044
2016-11-11T15:37:42.625Z,1804
2016-11-11T15:38:53.263Z,1748
2016-11-11T15:40:03.808Z,1700
2016-11-11T15:41:14.851Z,1696
2016-11-11T15:42:25.392Z,1756
2016-11-11T15:43:35.929Z,1856
2016-11-11T15:44:46.666Z,1896
2016-11-11T15:45:57.701Z,1284
2016-11-11T15:47:08.239Z,784
2016-11-11T15:48:18.777Z,1664
2016-11-11T15:49:29.318Z,1640
2016-11-11T15:52:05.016Z,1568
2016-11-11T15:53:15.562Z,1604
2016-11-11T15:54:40.629Z,1604
2016-11-11T15:55:51.272Z,1636
2016-11-11T15:57:01.820Z,1528
2016-11-11T15:59:37.455Z,616
2016-11-11T16:00:48.202Z,596
2016-11-11T16:01:58.767Z,680
2016-11-11T16:03:09.809Z,704
2016-11-11T16:04:20.356Z,592
2016-11-11T16:05:31.392Z,632
2016-11-11T16:06:56.663Z,1392
2016-11-11T16:08:07.702Z,1124
2016-11-11T16:09:18.248Z,664
2016-11-11T16:10:29.311Z,1368
2016-11-11T16:11:39.862Z,1384
2016-11-11T16:12:51.003Z,1328
2016-11-11T16:14:02.037Z,1340
2016-11-11T16:15:27.602Z,1364
2016-11-11T16:16:38.635Z,1396
2016-11-11T16:19:14.901Z,1276
2016-11-11T16:20:25.322Z,1284
2016-11-11T16:21:50.299Z,1252
2016-11-11T16:23:00.816Z,1184
2016-11-11T16:24:11.720Z,776
2016-11-11T16:25:22.140Z,544
2016-11-11T16:26:32.563Z,680
2016-11-11T16:27:58.235Z,1252
2016-11-11T16:29:09.142Z,1208
2016-11-11T16:30:19.646Z,1200
2016-11-11T16:31:30.083Z,1180
2016-11-11T16:32:40.515Z,1044
2016-11-11T16:33:51.160Z,1196
2016-11-11T16:35:01.581Z,876
2016-11-11T16:36:26.553Z,1220
2016-11-11T16:37:36.973Z,1172
2016-11-11T16:38:47.420Z,1176
2016-11-11T16:39:57.837Z,1168
2016-11-11T16:41:08.251Z,1156
2016-11-11T16:42:18.665Z,1100
2016-11-11T16:43:29.081Z,1096
2016-11-11T16:44:39.532Z,1132
2016-11-11T16:45:49.949Z,1156
2016-11-11T16:47:00.369Z,1188
2016-11-11T16:48:25.335Z,1204
2016-11-11T16:49:35.752Z,1256
2016-11-11T16:50:46.172Z,1320
2016-11-11T16:51:56.584Z,1284
2016-11-11T16:53:07.000Z,912
2016-11-11T16:54:17.417Z,1432
2016-11-11T16:55:27.831Z,1480
2016-11-11T16:56:38.276Z,1488
2016-11-11T16:57:48.696Z,1472
2016-11-11T16:58:59.152Z,1460
2016-11-11T17:00:09.573Z,1376
2016-11-11T17:01:20.681Z,1364
2016-11-11T17:02:31.096Z,1368
2016-11-11T17:03:41.517Z,1416
2016-11-11T17:05:06.489Z,1452
2016-11-11T17:06:17.592Z,1488
2016-11-11T17:07:28.009Z,1496
2016-11-11T17:08:38.424Z,1500
2016-11-11T17:09:48.842Z,1504
2016-11-11T17:10:59.262Z,1484
2016-11-11T17:12:24.326Z,1452
2016-11-11T17:13:34.742Z,1496